sensor_id;sensor_type;location;lat;lon;timestamp;P1;durP1;ratioP1;P2;durP2;ratioP2
65377;SDS011;51982;51.042;13.806;2023-02-28T00:00:12;6.60;;;3.25;;
65377;SDS011;51982;51.042;13.806;2023-02-28T00:02:39;5.38;;;3.25;;
65377;SDS011;51982;51.042;13.806;2023-02-28T00:05:06;5.50;;;2.88;;
65377;SDS011;51982;51.042;13.806;2023-02-28T00:07:33;6.57;;;3.30;;
65377;SDS011;51982;51.042;13.806;2023-02-28T00:09:58;5.88;;;2.80;;
65377;SDS011;51982;51.042;13.806;2023-02-28T00:12:24;6.47;;;2.85;;
65377;SDS011;51982;51.042;13.806;2023-02-28T00:14:50;6.10;;;3.28;;
65377;SDS011;51982;51.042;13.806;2023-02-28T00:17:16;5.82;;;3.08;;
65377;SDS011;51982;51.042;13.806;2023-02-28T00:19:42;4.18;;;3.00;;
65377;SDS011;51982;51.042;13.806;2023-02-28T00:22:08;5.07;;;3.00;;
65377;SDS011;51982;51.042;13.806;2023-02-28T00:24:33;9.55;;;3.20;;
65377;SDS011;51982;51.042;13.806;2023-02-28T00:26:58;7.47;;;2.92;;
65377;SDS011;51982;51.042;13.806;2023-02-28T00:29:24;5.57;;;3.42;;
65377;SDS011;51982;51.042;13.806;2023-02-28T00:31:49;6.45;;;3.22;;
65377;SDS011;51982;51.042;13.806;2023-02-28T00:34:14;5.57;;;3.03;;
65377;SDS011;51982;51.042;13.806;2023-02-28T00:36:39;6.65;;;3.20;;
65377;SDS011;51982;51.042;13.806;2023-02-28T00:39:08;6.68;;;3.25;;
65377;SDS011;51982;51.042;13.806;2023-02-28T00:41:33;7.47;;;2.97;;
65377;SDS011;51982;51.042;13.806;2023-02-28T00:43:59;6.30;;;3.10;;
65377;SDS011;51982;51.042;13.806;2023-02-28T00:46:24;7.28;;;3.08;;
65377;SDS011;51982;51.042;13.806;2023-02-28T00:48:49;6.38;;;3.33;;
65377;SDS011;51982;51.042;13.806;2023-02-28T00:51:14;7.15;;;3.30;;
65377;SDS011;51982;51.042;13.806;2023-02-28T00:53:40;5.47;;;2.90;;
65377;SDS011;51982;51.042;13.806;2023-02-28T00:56:05;4.57;;;2.83;;
65377;SDS011;51982;51.042;13.806;2023-02-28T00:58:30;7.85;;;3.13;;
65377;SDS011;51982;51.042;13.806;2023-02-28T01:00:55;6.90;;;2.97;;
65377;SDS011;51982;51.042;13.806;2023-02-28T01:03:21;6.38;;;2.92;;
65377;SDS011;51982;51.042;13.806;2023-02-28T01:05:47;9.80;;;3.10;;
65377;SDS011;51982;51.042;13.806;2023-02-28T01:08:13;5.88;;;3.10;;
65377;SDS011;51982;51.042;13.806;2023-02-28T01:10:39;7.18;;;3.10;;
65377;SDS011;51982;51.042;13.806;2023-02-28T01:13:04;6.05;;;3.35;;
65377;SDS011;51982;51.042;13.806;2023-02-28T01:15:30;10.15;;;3.22;;
65377;SDS011;51982;51.042;13.806;2023-02-28T01:17:56;6.30;;;3.38;;
65377;SDS011;51982;51.042;13.806;2023-02-28T01:20:22;5.10;;;3.03;;
65377;SDS011;51982;51.042;13.806;2023-02-28T01:22:47;5.38;;;3.22;;
65377;SDS011;51982;51.042;13.806;2023-02-28T01:25:12;5.70;;;3.13;;
65377;SDS011;51982;51.042;13.806;2023-02-28T01:27:38;6.00;;;3.53;;
65377;SDS011;51982;51.042;13.806;2023-02-28T01:30:04;5.43;;;3.08;;
65377;SDS011;51982;51.042;13.806;2023-02-28T01:32:30;8.07;;;3.72;;
65377;SDS011;51982;51.042;13.806;2023-02-28T01:34:56;5.28;;;3.08;;
65377;SDS011;51982;51.042;13.806;2023-02-28T01:37:21;6.75;;;3.10;;
65377;SDS011;51982;51.042;13.806;2023-02-28T01:39:46;6.85;;;3.67;;
65377;SDS011;51982;51.042;13.806;2023-02-28T01:42:11;6.07;;;3.03;;
65377;SDS011;51982;51.042;13.806;2023-02-28T01:49:47;8.55;;;3.25;;
65377;SDS011;51982;51.042;13.806;2023-02-28T01:52:13;7.03;;;3.55;;
65377;SDS011;51982;51.042;13.806;2023-02-28T01:54:42;5.38;;;3.30;;
65377;SDS011;51982;51.042;13.806;2023-02-28T01:57:15;7.63;;;3.33;;
65377;SDS011;51982;51.042;13.806;2023-02-28T01:59:48;5.72;;;3.38;;
65377;SDS011;51982;51.042;13.806;2023-02-28T02:02:29;7.53;;;3.28;;
65377;SDS011;51982;51.042;13.806;2023-02-28T02:07:31;7.30;;;3.28;;
65377;SDS011;51982;51.042;13.806;2023-02-28T02:10:00;8.52;;;3.28;;
65377;SDS011;51982;51.042;13.806;2023-02-28T02:12:55;6.63;;;3.08;;
65377;SDS011;51982;51.042;13.806;2023-02-28T02:18:33;8.60;;;3.50;;
65377;SDS011;51982;51.042;13.806;2023-02-28T02:21:24;7.30;;;3.55;;
65377;SDS011;51982;51.042;13.806;2023-02-28T02:27:26;5.93;;;3.15;;
65377;SDS011;51982;51.042;13.806;2023-02-28T02:30:10;5.50;;;3.20;;
65377;SDS011;51982;51.042;13.806;2023-02-28T02:33:26;6.27;;;3.53;;
65377;SDS011;51982;51.042;13.806;2023-02-28T02:36:07;6.18;;;3.50;;
65377;SDS011;51982;51.042;13.806;2023-02-28T02:38:50;6.65;;;3.58;;
65377;SDS011;51982;51.042;13.806;2023-02-28T02:44:04;8.73;;;3.40;;
65377;SDS011;51982;51.042;13.806;2023-02-28T02:46:43;7.32;;;3.88;;
65377;SDS011;51982;51.042;13.806;2023-02-28T02:49:12;7.80;;;3.95;;
65377;SDS011;51982;51.042;13.806;2023-02-28T02:51:43;5.50;;;3.72;;
65377;SDS011;51982;51.042;13.806;2023-02-28T02:54:11;7.32;;;4.00;;
65377;SDS011;51982;51.042;13.806;2023-02-28T02:56:46;8.70;;;4.10;;
65377;SDS011;51982;51.042;13.806;2023-02-28T02:59:14;7.25;;;4.10;;
65377;SDS011;51982;51.042;13.806;2023-02-28T03:01:46;6.82;;;3.85;;
65377;SDS011;51982;51.042;13.806;2023-02-28T03:04:19;8.57;;;4.18;;
65377;SDS011;51982;51.042;13.806;2023-02-28T03:06:46;8.35;;;4.00;;
65377;SDS011;51982;51.042;13.806;2023-02-28T03:09:11;8.25;;;4.10;;
65377;SDS011;51982;51.042;13.806;2023-02-28T03:11:37;11.45;;;4.40;;
65377;SDS011;51982;51.042;13.806;2023-02-28T03:14:10;12.50;;;4.53;;
65377;SDS011;51982;51.042;13.806;2023-02-28T03:16:49;6.85;;;4.18;;
65377;SDS011;51982;51.042;13.806;2023-02-28T03:19:44;8.73;;;4.35;;
65377;SDS011;51982;51.042;13.806;2023-02-28T03:25:17;9.82;;;4.00;;
65377;SDS011;51982;51.042;13.806;2023-02-28T03:30:35;7.95;;;4.13;;
65377;SDS011;51982;51.042;13.806;2023-02-28T03:35:56;9.00;;;4.05;;
65377;SDS011;51982;51.042;13.806;2023-02-28T03:38:27;7.35;;;4.40;;
65377;SDS011;51982;51.042;13.806;2023-02-28T03:41:01;10.27;;;4.55;;
65377;SDS011;51982;51.042;13.806;2023-02-28T03:43:32;7.55;;;4.07;;
65377;SDS011;51982;51.042;13.806;2023-02-28T03:46:00;12.43;;;4.40;;
65377;SDS011;51982;51.042;13.806;2023-02-28T03:48:44;7.05;;;4.00;;
65377;SDS011;51982;51.042;13.806;2023-02-28T03:51:15;10.52;;;5.38;;
65377;SDS011;51982;51.042;13.806;2023-02-28T03:53:45;7.68;;;4.30;;
65377;SDS011;51982;51.042;13.806;2023-02-28T03:56:33;8.30;;;4.25;;
65377;SDS011;51982;51.042;13.806;2023-02-28T04:01:47;10.23;;;4.43;;
65377;SDS011;51982;51.042;13.806;2023-02-28T04:04:14;9.85;;;4.60;;
65377;SDS011;51982;51.042;13.806;2023-02-28T04:06:41;7.18;;;4.35;;
65377;SDS011;51982;51.042;13.806;2023-02-28T04:09:08;8.18;;;4.75;;
65377;SDS011;51982;51.042;13.806;2023-02-28T04:11:36;13.82;;;5.20;;
65377;SDS011;51982;51.042;13.806;2023-02-28T04:14:04;8.38;;;4.55;;
65377;SDS011;51982;51.042;13.806;2023-02-28T04:16:34;9.77;;;4.93;;
65377;SDS011;51982;51.042;13.806;2023-02-28T04:19:01;12.50;;;4.90;;
65377;SDS011;51982;51.042;13.806;2023-02-28T04:21:28;11.60;;;5.18;;
65377;SDS011;51982;51.042;13.806;2023-02-28T04:24:07;10.40;;;5.07;;
65377;SDS011;51982;51.042;13.806;2023-02-28T04:26:38;11.05;;;5.10;;
65377;SDS011;51982;51.042;13.806;2023-02-28T04:29:04;9.77;;;5.20;;
65377;SDS011;51982;51.042;13.806;2023-02-28T04:31:30;10.40;;;5.50;;
65377;SDS011;51982;51.042;13.806;2023-02-28T04:33:56;10.63;;;5.63;;
65377;SDS011;51982;51.042;13.806;2023-02-28T04:36:21;8.30;;;4.38;;
65377;SDS011;51982;51.042;13.806;2023-02-28T04:38:48;8.70;;;4.88;;
65377;SDS011;51982;51.042;13.806;2023-02-28T04:41:14;10.02;;;5.60;;
65377;SDS011;51982;51.042;13.806;2023-02-28T04:43:39;11.95;;;5.22;;
65377;SDS011;51982;51.042;13.806;2023-02-28T04:46:05;8.98;;;4.97;;
65377;SDS011;51982;51.042;13.806;2023-02-28T04:48:32;12.13;;;5.78;;
65377;SDS011;51982;51.042;13.806;2023-02-28T04:51:01;13.60;;;5.18;;
65377;SDS011;51982;51.042;13.806;2023-02-28T04:53:34;11.48;;;5.20;;
65377;SDS011;51982;51.042;13.806;2023-02-28T04:56:00;9.07;;;4.90;;
65377;SDS011;51982;51.042;13.806;2023-02-28T04:58:25;10.40;;;5.45;;
65377;SDS011;51982;51.042;13.806;2023-02-28T05:00:52;13.55;;;5.72;;
65377;SDS011;51982;51.042;13.806;2023-02-28T05:03:18;10.63;;;5.55;;
65377;SDS011;51982;51.042;13.806;2023-02-28T05:05:45;10.00;;;5.60;;
65377;SDS011;51982;51.042;13.806;2023-02-28T05:08:11;9.95;;;5.30;;
65377;SDS011;51982;51.042;13.806;2023-02-28T05:10:36;10.57;;;5.53;;
65377;SDS011;51982;51.042;13.806;2023-02-28T05:13:01;11.45;;;5.72;;
65377;SDS011;51982;51.042;13.806;2023-02-28T05:15:27;13.13;;;5.47;;
65377;SDS011;51982;51.042;13.806;2023-02-28T05:17:52;12.63;;;5.50;;
65377;SDS011;51982;51.042;13.806;2023-02-28T05:20:17;8.98;;;5.38;;
65377;SDS011;51982;51.042;13.806;2023-02-28T05:22:43;12.90;;;5.50;;
65377;SDS011;51982;51.042;13.806;2023-02-28T05:25:12;13.02;;;6.28;;
65377;SDS011;51982;51.042;13.806;2023-02-28T05:27:44;12.80;;;6.32;;
65377;SDS011;51982;51.042;13.806;2023-02-28T05:30:10;13.25;;;6.55;;
65377;SDS011;51982;51.042;13.806;2023-02-28T05:32:39;11.15;;;5.93;;
65377;SDS011;51982;51.042;13.806;2023-02-28T05:35:08;12.25;;;5.53;;
65377;SDS011;51982;51.042;13.806;2023-02-28T05:37:34;10.63;;;5.55;;
65377;SDS011;51982;51.042;13.806;2023-02-28T05:39:59;13.77;;;6.13;;
65377;SDS011;51982;51.042;13.806;2023-02-28T05:42:24;16.75;;;7.18;;
65377;SDS011;51982;51.042;13.806;2023-02-28T05:44:50;16.15;;;7.50;;
65377;SDS011;51982;51.042;13.806;2023-02-28T05:47:15;13.63;;;7.88;;
65377;SDS011;51982;51.042;13.806;2023-02-28T05:49:41;16.02;;;8.00;;
65377;SDS011;51982;51.042;13.806;2023-02-28T05:52:07;13.07;;;7.18;;
65377;SDS011;51982;51.042;13.806;2023-02-28T05:54:32;17.38;;;7.47;;
65377;SDS011;51982;51.042;13.806;2023-02-28T05:56:57;13.65;;;6.97;;
65377;SDS011;51982;51.042;13.806;2023-02-28T05:59:22;19.65;;;7.78;;
65377;SDS011;51982;51.042;13.806;2023-02-28T06:01:48;13.13;;;7.05;;
65377;SDS011;51982;51.042;13.806;2023-02-28T06:04:14;12.13;;;6.25;;
65377;SDS011;51982;51.042;13.806;2023-02-28T06:06:43;10.75;;;6.38;;
65377;SDS011;51982;51.042;13.806;2023-02-28T06:09:09;13.27;;;6.88;;
65377;SDS011;51982;51.042;13.806;2023-02-28T06:11:35;12.27;;;6.57;;
65377;SDS011;51982;51.042;13.806;2023-02-28T06:14:00;12.82;;;6.57;;
65377;SDS011;51982;51.042;13.806;2023-02-28T06:16:27;11.95;;;6.22;;
65377;SDS011;51982;51.042;13.806;2023-02-28T06:18:53;16.27;;;8.38;;
65377;SDS011;51982;51.042;13.806;2023-02-28T06:21:20;14.13;;;7.13;;
65377;SDS011;51982;51.042;13.806;2023-02-28T06:23:49;17.60;;;9.43;;
65377;SDS011;51982;51.042;13.806;2023-02-28T06:26:14;19.00;;;8.90;;
65377;SDS011;51982;51.042;13.806;2023-02-28T06:28:40;16.90;;;8.43;;
65377;SDS011;51982;51.042;13.806;2023-02-28T06:31:09;13.60;;;6.57;;
65377;SDS011;51982;51.042;13.806;2023-02-28T06:33:36;13.25;;;7.35;;
65377;SDS011;51982;51.042;13.806;2023-02-28T06:36:03;11.02;;;5.80;;
65377;SDS011;51982;51.042;13.806;2023-02-28T06:38:29;14.40;;;6.45;;
65377;SDS011;51982;51.042;13.806;2023-02-28T06:40:55;12.75;;;6.15;;
65377;SDS011;51982;51.042;13.806;2023-02-28T06:43:22;13.15;;;6.75;;
65377;SDS011;51982;51.042;13.806;2023-02-28T06:45:48;12.68;;;6.50;;
65377;SDS011;51982;51.042;13.806;2023-02-28T06:48:13;12.90;;;6.80;;
65377;SDS011;51982;51.042;13.806;2023-02-28T06:50:38;17.17;;;6.88;;
65377;SDS011;51982;51.042;13.806;2023-02-28T06:53:03;16.55;;;6.20;;
65377;SDS011;51982;51.042;13.806;2023-02-28T06:55:29;10.35;;;5.55;;
65377;SDS011;51982;51.042;13.806;2023-02-28T06:57:54;12.90;;;5.72;;
65377;SDS011;51982;51.042;13.806;2023-02-28T07:00:22;10.93;;;5.88;;
65377;SDS011;51982;51.042;13.806;2023-02-28T07:02:47;13.40;;;5.38;;
65377;SDS011;51982;51.042;13.806;2023-02-28T07:05:13;11.80;;;5.55;;
65377;SDS011;51982;51.042;13.806;2023-02-28T07:07:38;10.52;;;5.30;;
65377;SDS011;51982;51.042;13.806;2023-02-28T07:10:08;9.52;;;5.18;;
65377;SDS011;51982;51.042;13.806;2023-02-28T07:12:36;10.60;;;5.53;;
65377;SDS011;51982;51.042;13.806;2023-02-28T07:15:01;11.05;;;5.60;;
65377;SDS011;51982;51.042;13.806;2023-02-28T07:17:28;14.27;;;5.32;;
65377;SDS011;51982;51.042;13.806;2023-02-28T07:19:53;12.93;;;5.60;;
65377;SDS011;51982;51.042;13.806;2023-02-28T07:22:18;11.73;;;5.97;;
65377;SDS011;51982;51.042;13.806;2023-02-28T07:24:43;12.32;;;5.95;;
65377;SDS011;51982;51.042;13.806;2023-02-28T07:27:09;20.38;;;6.18;;
65377;SDS011;51982;51.042;13.806;2023-02-28T07:29:34;10.23;;;5.68;;
65377;SDS011;51982;51.042;13.806;2023-02-28T07:31:59;14.68;;;6.25;;
65377;SDS011;51982;51.042;13.806;2023-02-28T07:34:24;12.02;;;5.63;;
65377;SDS011;51982;51.042;13.806;2023-02-28T07:36:52;10.65;;;5.57;;
65377;SDS011;51982;51.042;13.806;2023-02-28T07:39:18;12.45;;;5.70;;
65377;SDS011;51982;51.042;13.806;2023-02-28T07:41:44;13.90;;;5.97;;
65377;SDS011;51982;51.042;13.806;2023-02-28T07:44:10;11.40;;;4.80;;
65377;SDS011;51982;51.042;13.806;2023-02-28T07:46:36;10.57;;;5.43;;
65377;SDS011;51982;51.042;13.806;2023-02-28T07:49:02;14.70;;;5.38;;
65377;SDS011;51982;51.042;13.806;2023-02-28T07:51:28;11.05;;;5.07;;
65377;SDS011;51982;51.042;13.806;2023-02-28T07:53:54;11.32;;;5.10;;
65377;SDS011;51982;51.042;13.806;2023-02-28T07:56:19;10.73;;;5.07;;
65377;SDS011;51982;51.042;13.806;2023-02-28T07:58:44;10.63;;;5.03;;
65377;SDS011;51982;51.042;13.806;2023-02-28T08:01:10;11.43;;;5.47;;
65377;SDS011;51982;51.042;13.806;2023-02-28T08:03:36;12.82;;;5.93;;
65377;SDS011;51982;51.042;13.806;2023-02-28T08:06:03;11.90;;;4.97;;
65377;SDS011;51982;51.042;13.806;2023-02-28T08:08:30;10.35;;;5.32;;
65377;SDS011;51982;51.042;13.806;2023-02-28T08:10:57;10.95;;;5.10;;
65377;SDS011;51982;51.042;13.806;2023-02-28T08:13:24;10.98;;;5.28;;
65377;SDS011;51982;51.042;13.806;2023-02-28T08:15:53;11.77;;;4.97;;
65377;SDS011;51982;51.042;13.806;2023-02-28T08:18:19;11.48;;;5.68;;
65377;SDS011;51982;51.042;13.806;2023-02-28T08:20:45;16.30;;;5.75;;
65377;SDS011;51982;51.042;13.806;2023-02-28T08:23:10;10.43;;;5.43;;
65377;SDS011;51982;51.042;13.806;2023-02-28T08:25:35;11.05;;;5.22;;
65377;SDS011;51982;51.042;13.806;2023-02-28T08:28:04;12.48;;;5.90;;
65377;SDS011;51982;51.042;13.806;2023-02-28T08:30:29;21.83;;;5.45;;
65377;SDS011;51982;51.042;13.806;2023-02-28T08:32:54;11.43;;;5.38;;
65377;SDS011;51982;51.042;13.806;2023-02-28T08:35:20;10.88;;;5.43;;
65377;SDS011;51982;51.042;13.806;2023-02-28T08:37:47;10.48;;;5.28;;
65377;SDS011;51982;51.042;13.806;2023-02-28T08:40:13;12.10;;;6.07;;
65377;SDS011;51982;51.042;13.806;2023-02-28T08:42:43;18.50;;;5.55;;
65377;SDS011;51982;51.042;13.806;2023-02-28T08:45:09;16.08;;;5.90;;
65377;SDS011;51982;51.042;13.806;2023-02-28T08:47:35;14.75;;;6.00;;
65377;SDS011;51982;51.042;13.806;2023-02-28T08:50:00;20.90;;;6.68;;
65377;SDS011;51982;51.042;13.806;2023-02-28T08:52:25;10.55;;;4.85;;
65377;SDS011;51982;51.042;13.806;2023-02-28T08:54:51;10.20;;;5.40;;
65377;SDS011;51982;51.042;13.806;2023-02-28T08:57:16;12.65;;;6.00;;
65377;SDS011;51982;51.042;13.806;2023-02-28T08:59:41;17.02;;;6.10;;
65377;SDS011;51982;51.042;13.806;2023-02-28T09:02:08;14.07;;;5.95;;
65377;SDS011;51982;51.042;13.806;2023-02-28T09:04:34;11.38;;;5.68;;
65377;SDS011;51982;51.042;13.806;2023-02-28T09:06:59;12.00;;;6.35;;
65377;SDS011;51982;51.042;13.806;2023-02-28T09:09:24;13.55;;;6.43;;
65377;SDS011;51982;51.042;13.806;2023-02-28T09:11:49;10.27;;;5.95;;
65377;SDS011;51982;51.042;13.806;2023-02-28T09:14:15;11.00;;;5.90;;
65377;SDS011;51982;51.042;13.806;2023-02-28T09:16:42;12.65;;;6.13;;
65377;SDS011;51982;51.042;13.806;2023-02-28T09:19:10;15.55;;;6.38;;
65377;SDS011;51982;51.042;13.806;2023-02-28T09:21:36;9.23;;;4.80;;
65377;SDS011;51982;51.042;13.806;2023-02-28T09:24:01;11.63;;;4.47;;
65377;SDS011;51982;51.042;13.806;2023-02-28T09:26:26;13.15;;;4.90;;
65377;SDS011;51982;51.042;13.806;2023-02-28T09:28:52;12.23;;;4.50;;
65377;SDS011;51982;51.042;13.806;2023-02-28T09:31:20;16.35;;;4.45;;
65377;SDS011;51982;51.042;13.806;2023-02-28T09:33:51;7.00;;;3.85;;
65377;SDS011;51982;51.042;13.806;2023-02-28T09:36:18;8.80;;;4.47;;
65377;SDS011;51982;51.042;13.806;2023-02-28T09:38:43;10.05;;;3.95;;
65377;SDS011;51982;51.042;13.806;2023-02-28T09:41:14;8.88;;;3.97;;
65377;SDS011;51982;51.042;13.806;2023-02-28T09:43:47;8.77;;;4.60;;
65377;SDS011;51982;51.042;13.806;2023-02-28T09:49:10;11.40;;;4.88;;
65377;SDS011;51982;51.042;13.806;2023-02-28T09:52:01;7.10;;;3.75;;
65377;SDS011;51982;51.042;13.806;2023-02-28T09:54:28;16.30;;;3.97;;
65377;SDS011;51982;51.042;13.806;2023-02-28T09:57:00;6.97;;;3.70;;
65377;SDS011;51982;51.042;13.806;2023-02-28T09:59:57;7.95;;;4.45;;
65377;SDS011;51982;51.042;13.806;2023-02-28T10:02:54;9.32;;;4.03;;
65377;SDS011;51982;51.042;13.806;2023-02-28T10:05:47;7.57;;;2.75;;
65377;SDS011;51982;51.042;13.806;2023-02-28T10:08:19;5.60;;;3.25;;
65377;SDS011;51982;51.042;13.806;2023-02-28T10:10:51;5.38;;;3.08;;
65377;SDS011;51982;51.042;13.806;2023-02-28T10:13:27;6.03;;;3.13;;
65377;SDS011;51982;51.042;13.806;2023-02-28T10:16:01;8.00;;;4.15;;
65377;SDS011;51982;51.042;13.806;2023-02-28T10:18:35;8.90;;;4.40;;
65377;SDS011;51982;51.042;13.806;2023-02-28T10:21:20;10.10;;;4.60;;
65377;SDS011;51982;51.042;13.806;2023-02-28T10:23:51;13.25;;;5.03;;
65377;SDS011;51982;51.042;13.806;2023-02-28T10:26:20;8.07;;;4.30;;
65377;SDS011;51982;51.042;13.806;2023-02-28T10:28:46;9.98;;;4.72;;
65377;SDS011;51982;51.042;13.806;2023-02-28T10:31:19;10.98;;;4.72;;
65377;SDS011;51982;51.042;13.806;2023-02-28T10:33:45;6.82;;;3.78;;
65377;SDS011;51982;51.042;13.806;2023-02-28T10:36:13;7.30;;;3.95;;
65377;SDS011;51982;51.042;13.806;2023-02-28T10:38:41;7.40;;;3.45;;
65377;SDS011;51982;51.042;13.806;2023-02-28T10:43:32;7.40;;;4.03;;
65377;SDS011;51982;51.042;13.806;2023-02-28T10:46:09;8.48;;;4.05;;
65377;SDS011;51982;51.042;13.806;2023-02-28T10:48:49;10.68;;;4.65;;
65377;SDS011;51982;51.042;13.806;2023-02-28T10:51:25;6.82;;;3.90;;
65377;SDS011;51982;51.042;13.806;2023-02-28T10:53:58;8.60;;;3.97;;
65377;SDS011;51982;51.042;13.806;2023-02-28T10:56:25;10.52;;;3.65;;
65377;SDS011;51982;51.042;13.806;2023-02-28T11:04:18;12.35;;;5.18;;
65377;SDS011;51982;51.042;13.806;2023-02-28T11:06:46;11.02;;;4.10;;
65377;SDS011;51982;51.042;13.806;2023-02-28T11:09:18;7.45;;;3.65;;
65377;SDS011;51982;51.042;13.806;2023-02-28T11:11:49;14.80;;;5.10;;
65377;SDS011;51982;51.042;13.806;2023-02-28T11:14:20;12.82;;;4.53;;
65377;SDS011;51982;51.042;13.806;2023-02-28T11:16:49;9.55;;;4.82;;
65377;SDS011;51982;51.042;13.806;2023-02-28T11:19:28;11.98;;;5.32;;
65377;SDS011;51982;51.042;13.806;2023-02-28T11:22:00;11.00;;;4.30;;
65377;SDS011;51982;51.042;13.806;2023-02-28T11:27:00;8.47;;;3.70;;
65377;SDS011;51982;51.042;13.806;2023-02-28T11:29:26;9.57;;;3.90;;
65377;SDS011;51982;51.042;13.806;2023-02-28T11:34:41;6.13;;;3.67;;
65377;SDS011;51982;51.042;13.806;2023-02-28T11:37:10;8.77;;;4.25;;
65377;SDS011;51982;51.042;13.806;2023-02-28T11:39:38;6.47;;;3.85;;
65377;SDS011;51982;51.042;13.806;2023-02-28T11:47:50;9.30;;;3.67;;
65377;SDS011;51982;51.042;13.806;2023-02-28T11:50:47;7.38;;;4.45;;
65377;SDS011;51982;51.042;13.806;2023-02-28T11:53:37;9.05;;;4.68;;
65377;SDS011;51982;51.042;13.806;2023-02-28T12:04:52;7.07;;;3.72;;
65377;SDS011;51982;51.042;13.806;2023-02-28T12:10:22;8.65;;;3.85;;
65377;SDS011;51982;51.042;13.806;2023-02-28T12:15:40;8.77;;;4.70;;
65377;SDS011;51982;51.042;13.806;2023-02-28T12:21:08;6.72;;;3.85;;
65377;SDS011;51982;51.042;13.806;2023-02-28T12:23:50;9.05;;;4.72;;
65377;SDS011;51982;51.042;13.806;2023-02-28T12:28:57;9.18;;;4.80;;
65377;SDS011;51982;51.042;13.806;2023-02-28T12:31:29;10.18;;;4.18;;
65377;SDS011;51982;51.042;13.806;2023-02-28T12:34:02;12.73;;;4.50;;
65377;SDS011;51982;51.042;13.806;2023-02-28T12:36:31;13.48;;;5.55;;
65377;SDS011;51982;51.042;13.806;2023-02-28T12:39:22;11.07;;;5.15;;
65377;SDS011;51982;51.042;13.806;2023-02-28T12:41:53;15.13;;;5.47;;
65377;SDS011;51982;51.042;13.806;2023-02-28T12:44:31;7.18;;;3.95;;
65377;SDS011;51982;51.042;13.806;2023-02-28T12:47:03;6.70;;;3.55;;
65377;SDS011;51982;51.042;13.806;2023-02-28T12:49:37;8.13;;;3.85;;
65377;SDS011;51982;51.042;13.806;2023-02-28T12:52:09;10.30;;;3.78;;
65377;SDS011;51982;51.042;13.806;2023-02-28T12:54:47;11.88;;;4.70;;
65377;SDS011;51982;51.042;13.806;2023-02-28T12:57:25;7.68;;;4.25;;
65377;SDS011;51982;51.042;13.806;2023-02-28T13:00:25;8.43;;;4.72;;
65377;SDS011;51982;51.042;13.806;2023-02-28T13:03:13;7.18;;;3.50;;
65377;SDS011;51982;51.042;13.806;2023-02-28T13:06:05;10.73;;;4.50;;
65377;SDS011;51982;51.042;13.806;2023-02-28T13:11:44;8.20;;;4.18;;
65377;SDS011;51982;51.042;13.806;2023-02-28T13:14:18;8.13;;;3.95;;
65377;SDS011;51982;51.042;13.806;2023-02-28T13:16:55;6.43;;;3.22;;
65377;SDS011;51982;51.042;13.806;2023-02-28T13:19:22;8.57;;;4.90;;
65377;SDS011;51982;51.042;13.806;2023-02-28T13:21:48;9.90;;;5.00;;
65377;SDS011;51982;51.042;13.806;2023-02-28T13:29:30;7.77;;;3.53;;
65377;SDS011;51982;51.042;13.806;2023-02-28T13:42:53;14.05;;;4.57;;
65377;SDS011;51982;51.042;13.806;2023-02-28T13:45:20;11.65;;;5.55;;
65377;SDS011;51982;51.042;13.806;2023-02-28T13:47:59;10.32;;;5.28;;
65377;SDS011;51982;51.042;13.806;2023-02-28T13:55:52;10.38;;;5.38;;
65377;SDS011;51982;51.042;13.806;2023-02-28T13:58:41;7.45;;;3.63;;
65377;SDS011;51982;51.042;13.806;2023-02-28T14:01:31;11.35;;;5.63;;
65377;SDS011;51982;51.042;13.806;2023-02-28T14:04:37;11.32;;;5.80;;
65377;SDS011;51982;51.042;13.806;2023-02-28T14:07:20;10.27;;;5.07;;
65377;SDS011;51982;51.042;13.806;2023-02-28T14:09:55;14.70;;;4.97;;
65377;SDS011;51982;51.042;13.806;2023-02-28T14:18:01;14.48;;;6.38;;
65377;SDS011;51982;51.042;13.806;2023-02-28T14:20:29;9.95;;;5.18;;
65377;SDS011;51982;51.042;13.806;2023-02-28T14:28:39;12.20;;;5.25;;
65377;SDS011;51982;51.042;13.806;2023-02-28T14:31:25;17.27;;;6.30;;
65377;SDS011;51982;51.042;13.806;2023-02-28T14:36:47;12.70;;;6.32;;
65377;SDS011;51982;51.042;13.806;2023-02-28T14:41:39;13.53;;;6.17;;
65377;SDS011;51982;51.042;13.806;2023-02-28T14:44:17;8.10;;;4.60;;
65377;SDS011;51982;51.042;13.806;2023-02-28T14:46:46;8.35;;;4.10;;
65377;SDS011;51982;51.042;13.806;2023-02-28T14:52:03;12.90;;;6.30;;
65377;SDS011;51982;51.042;13.806;2023-02-28T14:54:34;14.88;;;4.97;;
65377;SDS011;51982;51.042;13.806;2023-02-28T14:56:59;12.57;;;6.13;;
65377;SDS011;51982;51.042;13.806;2023-02-28T14:59:29;13.35;;;6.43;;
65377;SDS011;51982;51.042;13.806;2023-02-28T15:02:15;13.90;;;6.10;;
65377;SDS011;51982;51.042;13.806;2023-02-28T15:04:41;15.57;;;5.93;;
65377;SDS011;51982;51.042;13.806;2023-02-28T15:07:10;13.35;;;6.20;;
65377;SDS011;51982;51.042;13.806;2023-02-28T15:09:38;12.80;;;6.63;;
65377;SDS011;51982;51.042;13.806;2023-02-28T15:12:04;12.38;;;6.10;;
65377;SDS011;51982;51.042;13.806;2023-02-28T15:14:30;14.32;;;6.70;;
65377;SDS011;51982;51.042;13.806;2023-02-28T15:16:57;9.20;;;5.10;;
65377;SDS011;51982;51.042;13.806;2023-02-28T15:19:26;13.00;;;6.18;;
65377;SDS011;51982;51.042;13.806;2023-02-28T15:21:57;10.15;;;5.50;;
65377;SDS011;51982;51.042;13.806;2023-02-28T15:27:30;10.90;;;5.45;;
65377;SDS011;51982;51.042;13.806;2023-02-28T15:30:00;12.30;;;5.88;;
65377;SDS011;51982;51.042;13.806;2023-02-28T15:32:31;12.75;;;6.18;;
65377;SDS011;51982;51.042;13.806;2023-02-28T15:34:59;12.73;;;6.20;;
65377;SDS011;51982;51.042;13.806;2023-02-28T15:37:52;11.27;;;6.27;;
65377;SDS011;51982;51.042;13.806;2023-02-28T15:40:41;13.85;;;6.25;;
65377;SDS011;51982;51.042;13.806;2023-02-28T15:43:22;18.45;;;6.97;;
65377;SDS011;51982;51.042;13.806;2023-02-28T15:46:05;12.65;;;6.00;;
65377;SDS011;51982;51.042;13.806;2023-02-28T15:48:36;20.42;;;8.07;;
65377;SDS011;51982;51.042;13.806;2023-02-28T15:51:20;18.95;;;7.53;;
65377;SDS011;51982;51.042;13.806;2023-02-28T15:53:51;16.92;;;7.47;;
65377;SDS011;51982;51.042;13.806;2023-02-28T15:56:28;16.25;;;6.15;;
65377;SDS011;51982;51.042;13.806;2023-02-28T15:58:56;13.25;;;6.63;;
65377;SDS011;51982;51.042;13.806;2023-02-28T16:01:24;16.88;;;7.15;;
65377;SDS011;51982;51.042;13.806;2023-02-28T16:03:54;14.00;;;7.00;;
65377;SDS011;51982;51.042;13.806;2023-02-28T16:09:08;11.85;;;6.32;;
65377;SDS011;51982;51.042;13.806;2023-02-28T16:11:36;13.02;;;6.47;;
65377;SDS011;51982;51.042;13.806;2023-02-28T16:14:04;20.13;;;7.10;;
65377;SDS011;51982;51.042;13.806;2023-02-28T16:16:30;14.60;;;6.78;;
65377;SDS011;51982;51.042;13.806;2023-02-28T16:18:56;16.35;;;6.80;;
65377;SDS011;51982;51.042;13.806;2023-02-28T16:21:21;15.43;;;7.53;;
65377;SDS011;51982;51.042;13.806;2023-02-28T16:23:47;14.95;;;7.13;;
65377;SDS011;51982;51.042;13.806;2023-02-28T16:26:16;13.20;;;6.65;;
65377;SDS011;51982;51.042;13.806;2023-02-28T16:28:46;23.55;;;7.15;;
65377;SDS011;51982;51.042;13.806;2023-02-28T16:31:11;15.20;;;6.82;;
65377;SDS011;51982;51.042;13.806;2023-02-28T16:33:41;16.02;;;7.30;;
65377;SDS011;51982;51.042;13.806;2023-02-28T16:36:09;15.32;;;7.20;;
65377;SDS011;51982;51.042;13.806;2023-02-28T16:38:38;13.02;;;6.43;;
65377;SDS011;51982;51.042;13.806;2023-02-28T16:41:03;17.00;;;6.95;;